Neptune, New Jersey
Current Conditions -  °F | °C
As of 6:55 PM on Thursday 25 Dec 2014 (Local Time) from KBLM Reporting Station
Clear Clear  
Wind Chill: 41°   Ceiling: Unl
Heat Index: 45°   Visibility: 10mi
Dew Point: 28°   Wind: 6mph
Humidity: 53%   Direction: 240°WSW
Pressure: 30.03"   Gusts: NA
Location:  40.2°N, 74.02°W
Report Text: KBLM 252355Z AUTO 24005KT 10SM CLR 07/M02 A3003 RMK AO1 10120 20070 401700070 52034
Loading
Personal Weather Stations






























Interactive Weather Map New forecast layout! Learn more

10-Day Weather Forecast

Advertisements
Track Severe Weather on mobile